Time;durP1;ratioP1;P1;durP2;ratioP2;P2;SDS_P1;SDS_P2;PMS_P1;PMS_P2;Temp;Humidity;BMP_temperature;BMP_pressure;BME280_temperature;BME280_humidity;BME280_pressure;Samples;Min_cycle;Max_cycle;Signal;HPM_P1;HPM_P2
2022/04/18 00:01:50;;;;;;;21.10;10.50;;;;;;;;;;10444340;28;20275;-68
2022/04/18 00:06:52;;;;;;;21.88;10.23;;;;;;;;;;10443849;28;20042;-67
2022/04/18 00:11:55;;;;;;;15.93;10.40;;;;;;;;;;10443139;28;20092;-67
2022/04/18 00:16:58;;;;;;;19.10;10.60;;;;;;;;;;10443384;28;20355;-67
2022/04/18 00:22:01;;;;;;;20.35;10.25;;;;;;;;;;10442922;28;20037;-68
2022/04/18 00:27:04;;;;;;;18.27;10.60;;;;;;;;;;10442137;28;20056;-69
2022/04/18 00:32:09;;;;;;;17.02;10.85;;;;;;;;;;10442263;28;20060;-68
2022/04/18 00:37:11;;;;;;;20.23;11.13;;;;;;;;;;10441979;28;20045;-69
2022/04/18 00:42:14;;;;;;;17.48;10.25;;;;;;;;;;10441835;28;20129;-69
2022/04/18 00:47:18;;;;;;;18.83;10.18;;;;;;;;;;10441435;28;20095;-68
2022/04/18 00:52:20;;;;;;;16.85;10.20;;;;;;;;;;10441622;28;20033;-68
2022/04/18 00:57:25;;;;;;;15.55;9.88;;;;;;;;;;10441217;28;20053;-68
2022/04/18 01:02:29;;;;;;;20.02;10.50;;;;;;;;;;10440852;28;20047;-68
2022/04/18 01:07:32;;;;;;;16.92;9.82;;;;;;;;;;10440891;28;20214;-68
2022/04/18 01:12:34;;;;;;;17.33;9.68;;;;;;;;;;10440597;28;20049;-68
2022/04/18 01:17:38;;;;;;;17.85;10.27;;;;;;;;;;10440438;28;20348;-68
2022/04/18 01:22:44;;;;;;;19.55;10.70;;;;;;;;;;10440223;28;20042;-68
2022/04/18 01:33:07;;;;;;;15.02;9.38;;;;;;;;;;10436296;28;20053;-67
2022/04/18 01:38:10;;;;;;;19.63;11.10;;;;;;;;;;10440017;28;20052;-68
2022/04/18 01:43:13;;;;;;;20.50;11.35;;;;;;;;;;10439069;28;20256;-67
2022/04/18 01:48:16;;;;;;;19.75;11.45;;;;;;;;;;10439512;28;20045;-68
2022/04/18 01:53:19;;;;;;;19.42;11.73;;;;;;;;;;10439709;28;20053;-68
2022/04/18 01:58:21;;;;;;;18.80;11.02;;;;;;;;;;10438886;28;20099;-68
2022/04/18 02:03:24;;;;;;;18.20;11.15;;;;;;;;;;10438100;28;20303;-68
2022/04/18 02:08:28;;;;;;;20.25;11.38;;;;;;;;;;10438199;28;20056;-68
2022/04/18 02:13:30;;;;;;;18.95;11.05;;;;;;;;;;10438974;28;20053;-69
2022/04/18 02:18:32;;;;;;;14.65;9.65;;;;;;;;;;10438637;28;20320;-68
2022/04/18 02:23:36;;;;;;;21.35;10.77;;;;;;;;;;10438116;28;20042;-69
2022/04/18 02:28:40;;;;;;;18.20;11.35;;;;;;;;;;10437791;28;20060;-68
2022/04/18 02:33:43;;;;;;;17.60;10.00;;;;;;;;;;10437741;28;20052;-68
2022/04/18 02:38:46;;;;;;;20.88;10.75;;;;;;;;;;10438000;28;20063;-68
2022/04/18 02:43:49;;;;;;;17.35;9.93;;;;;;;;;;10436853;28;20065;-68
2022/04/18 02:48:53;;;;;;;22.02;11.18;;;;;;;;;;10437515;28;20151;-68
2022/04/18 02:53:59;;;;;;;20.80;11.27;;;;;;;;;;10436888;28;20117;-68
2022/04/18 02:59:01;;;;;;;16.35;10.93;;;;;;;;;;10437535;28;20057;-68
2022/04/18 03:04:04;;;;;;;20.77;11.02;;;;;;;;;;10436929;28;20042;-68
2022/04/18 03:09:08;;;;;;;19.92;12.07;;;;;;;;;;10436259;28;20108;-68
2022/04/18 03:14:10;;;;;;;20.00;11.13;;;;;;;;;;10443178;28;20064;-68
2022/04/18 03:19:12;;;;;;;21.58;12.50;;;;;;;;;;10445202;28;20050;-68
2022/04/18 03:24:19;;;;;;;19.15;12.02;;;;;;;;;;10444862;28;20041;-68
2022/04/18 03:29:21;;;;;;;22.88;12.25;;;;;;;;;;10444716;28;20056;-68
2022/04/18 03:34:24;;;;;;;16.33;10.82;;;;;;;;;;10444690;28;20042;-68
2022/04/18 03:44:49;;;;;;;19.85;12.00;;;;;;;;;;10443863;28;20080;-68
2022/04/18 03:49:51;;;;;;;20.40;11.70;;;;;;;;;;10444224;28;20049;-68
2022/04/18 03:54:55;;;;;;;20.73;11.90;;;;;;;;;;10443926;28;20045;-68
2022/04/18 03:59:57;;;;;;;23.88;11.57;;;;;;;;;;10443393;28;20232;-68
2022/04/18 04:04:59;;;;;;;16.13;11.13;;;;;;;;;;10443198;28;20053;-68
2022/04/18 04:10:03;;;;;;;19.13;11.75;;;;;;;;;;10443019;28;20045;-68
2022/04/18 04:15:07;;;;;;;14.88;12.00;;;;;;;;;;10443481;28;20057;-69
2022/04/18 04:20:10;;;;;;;14.10;11.70;;;;;;;;;;10443043;28;20132;-69
2022/04/18 04:25:14;;;;;;;13.80;11.57;;;;;;;;;;10441434;28;20050;-68
2022/04/18 04:30:16;;;;;;;16.48;14.77;;;;;;;;;;10442159;28;20053;-68
2022/04/18 04:35:18;;;;;;;20.50;18.60;;;;;;;;;;10442041;28;20057;-68
2022/04/18 04:40:23;;;;;;;18.38;16.65;;;;;;;;;;10440971;28;20049;-68
2022/04/18 04:45:26;;;;;;;17.85;15.98;;;;;;;;;;10441084;28;20053;-68
2022/04/18 04:50:31;;;;;;;16.77;14.98;;;;;;;;;;10441186;28;20049;-68
2022/04/18 04:55:37;;;;;;;11.85;10.70;;;;;;;;;;10454303;28;20045;-69
2022/04/18 05:00:40;;;;;;;11.40;8.85;;;;;;;;;;10454520;28;20276;-69
2022/04/18 05:05:56;;;;;;;13.10;10.43;;;;;;;;;;10440859;28;20064;-69
2022/04/18 05:11:21;;;;;;;8.75;7.82;;;;;;;;;;10423730;28;20033;-71
2022/04/18 05:16:27;;;;;;;9.82;6.97;;;;;;;;;;10447404;28;20108;-70
2022/04/18 05:21:32;;;;;;;11.40;8.50;;;;;;;;;;10440266;28;20400;-69
2022/04/18 05:26:37;;;;;;;7.38;6.22;;;;;;;;;;10439605;28;20045;-70
2022/04/18 05:31:40;;;;;;;7.25;5.63;;;;;;;;;;10435149;28;20267;-70
2022/04/18 05:36:43;;;;;;;7.32;5.10;;;;;;;;;;10434567;28;20236;-70
2022/04/18 05:41:48;;;;;;;5.95;4.93;;;;;;;;;;10438914;28;20446;-71
2022/04/18 05:46:51;;;;;;;6.78;5.60;;;;;;;;;;10439966;28;20108;-69
2022/04/18 05:52:04;;;;;;;6.65;5.78;;;;;;;;;;10437256;28;20241;-74
2022/04/18 05:57:10;;;;;;;6.13;5.05;;;;;;;;;;10451428;28;20079;-71
2022/04/18 06:02:12;;;;;;;5.30;4.43;;;;;;;;;;10438939;28;20060;-70
2022/04/18 06:07:17;;;;;;;6.32;4.45;;;;;;;;;;10439010;28;20086;-70
2022/04/18 06:12:22;;;;;;;5.13;4.30;;;;;;;;;;10451419;28;20097;-69
2022/04/18 06:17:24;;;;;;;5.40;3.80;;;;;;;;;;10438605;28;20041;-70
2022/04/18 06:22:27;;;;;;;5.10;4.40;;;;;;;;;;10438583;28;20052;-70
2022/04/18 06:27:31;;;;;;;4.10;3.80;;;;;;;;;;10437889;28;20109;-71
2022/04/18 06:32:38;;;;;;;3.97;3.58;;;;;;;;;;10437729;28;20049;-70
2022/04/18 06:37:41;;;;;;;5.20;4.10;;;;;;;;;;10433226;28;20053;-71
2022/04/18 06:42:46;;;;;;;4.90;3.80;;;;;;;;;;10433236;28;20107;-70
2022/04/18 06:47:48;;;;;;;4.20;3.83;;;;;;;;;;10437233;28;20045;-70
2022/04/18 06:52:51;;;;;;;5.38;3.67;;;;;;;;;;10437840;28;20041;-70
2022/04/18 06:57:54;;;;;;;3.13;2.80;;;;;;;;;;10436293;28;20056;-70
2022/04/18 07:02:57;;;;;;;3.83;3.47;;;;;;;;;;10437917;28;20240;-70
2022/04/18 07:07:59;;;;;;;3.53;3.22;;;;;;;;;;10434979;28;20049;-71
2022/04/18 07:13:03;;;;;;;7.75;5.05;;;;;;;;;;10436603;28;20051;-69
2022/04/18 07:18:05;;;;;;;3.40;3.10;;;;;;;;;;10437433;28;20092;-70
2022/04/18 07:23:08;;;;;;;2.60;2.40;;;;;;;;;;10437731;28;20246;-70
2022/04/18 07:28:12;;;;;;;2.70;2.50;;;;;;;;;;10436834;28;20045;-70
2022/04/18 07:33:14;;;;;;;2.70;2.30;;;;;;;;;;10437381;28;20328;-70
2022/04/18 07:43:39;;;;;;;3.75;2.20;;;;;;;;;;10436428;28;20229;-70
2022/04/18 07:48:44;;;;;;;2.20;2.00;;;;;;;;;;10436078;28;20355;-70
2022/04/18 07:53:46;;;;;;;3.78;2.20;;;;;;;;;;10437640;28;20053;-70
2022/04/18 07:58:50;;;;;;;2.40;2.20;;;;;;;;;;10438908;28;20198;-70
2022/04/18 08:03:53;;;;;;;2.08;1.80;;;;;;;;;;10444580;28;20042;-70
2022/04/18 08:08:56;;;;;;;1.73;1.63;;;;;;;;;;10444646;28;20336;-71
2022/04/18 08:14:00;;;;;;;2.60;1.55;;;;;;;;;;10443160;28;20043;-69
2022/04/18 08:19:02;;;;;;;2.35;1.20;;;;;;;;;;10443658;28;20240;-70
2022/04/18 08:24:05;;;;;;;2.28;1.25;;;;;;;;;;10444387;28;20050;-70
2022/04/18 08:29:08;;;;;;;1.50;1.30;;;;;;;;;;10442683;28;20049;-70
2022/04/18 08:34:12;;;;;;;1.37;1.27;;;;;;;;;;10442640;28;20041;-71
2022/04/18 08:39:15;;;;;;;1.83;1.60;;;;;;;;;;10442505;28;20057;-70
2022/04/18 08:44:20;;;;;;;0.80;0.80;;;;;;;;;;10441407;28;20057;-71
2022/04/18 08:54:44;;;;;;;12.93;1.60;;;;;;;;;;10456570;28;20041;-70
2022/04/18 08:59:47;;;;;;;1.08;1.00;;;;;;;;;;10441295;28;20053;-70
2022/04/18 09:04:50;;;;;;;2.03;1.25;;;;;;;;;;10442465;28;20049;-72
2022/04/18 09:09:55;;;;;;;3.47;1.23;;;;;;;;;;10442045;28;20042;-71
2022/04/18 09:14:58;;;;;;;1.38;1.27;;;;;;;;;;10440549;28;20057;-70
2022/04/18 09:20:06;;;;;;;2.03;0.98;;;;;;;;;;10441905;28;20042;-70
2022/04/18 09:25:14;;;;;;;1.85;1.13;;;;;;;;;;10441916;28;20049;-72
2022/04/18 09:30:19;;;;;;;1.10;1.00;;;;;;;;;;10454372;28;20046;-70
2022/04/18 09:35:26;;;;;;;1.25;1.02;;;;;;;;;;10440399;28;20045;-70
2022/04/18 09:40:32;;;;;;;1.65;1.55;;;;;;;;;;10450108;28;20041;-70
2022/04/18 09:45:37;;;;;;;2.60;1.80;;;;;;;;;;10440966;28;20057;-69
2022/04/18 09:55:59;;;;;;;2.65;2.30;;;;;;;;;;10440709;28;20057;-69
2022/04/18 10:01:06;;;;;;;3.40;2.50;;;;;;;;;;10437408;28;20041;-68
2022/04/18 10:06:09;;;;;;;5.28;2.45;;;;;;;;;;10453346;28;20041;-69
2022/04/18 10:11:12;;;;;;;5.38;2.55;;;;;;;;;;10439849;28;20064;-69
2022/04/18 10:16:16;;;;;;;3.38;2.50;;;;;;;;;;10438689;28;20355;-71
2022/04/18 10:21:27;;;;;;;3.15;2.55;;;;;;;;;;10438562;28;20283;-69
2022/04/18 10:27:05;;;;;;;3.80;2.80;;;;;;;;;;10438823;28;20053;-69
2022/04/18 10:32:11;;;;;;;3.33;2.45;;;;;;;;;;10449458;28;20276;-69
2022/04/18 10:37:16;;;;;;;3.17;2.65;;;;;;;;;;10438883;28;20244;-69
2022/04/18 10:42:21;;;;;;;7.63;3.58;;;;;;;;;;10437709;28;20083;-67
2022/04/18 10:47:25;;;;;;;5.43;2.83;;;;;;;;;;10438185;28;20063;-68
2022/04/18 10:52:29;;;;;;;5.15;2.78;;;;;;;;;;10437856;28;20041;-68
2022/04/18 10:57:33;;;;;;;4.80;3.03;;;;;;;;;;10435683;28;20064;-69
2022/04/18 11:02:42;;;;;;;7.15;3.42;;;;;;;;;;10436170;28;20041;-70
2022/04/18 11:07:44;;;;;;;4.13;3.13;;;;;;;;;;10436850;28;20057;-69
2022/04/18 11:12:47;;;;;;;4.65;2.80;;;;;;;;;;10436495;28;20275;-69
2022/04/18 11:17:51;;;;;;;3.72;2.80;;;;;;;;;;10429352;28;20049;-68
2022/04/18 11:23:21;;;;;;;7.53;2.88;;;;;;;;;;10436439;28;20348;-69
2022/04/18 11:28:26;;;;;;;2.83;2.63;;;;;;;;;;10449904;28;20053;-69
2022/04/18 11:33:31;;;;;;;3.78;2.70;;;;;;;;;;10438842;28;20104;-69
2022/04/18 11:38:33;;;;;;;5.35;2.92;;;;;;;;;;10444617;28;20156;-70
2022/04/18 11:43:36;;;;;;;4.35;2.83;;;;;;;;;;10443778;28;20057;-69
2022/04/18 11:48:41;;;;;;;5.03;2.50;;;;;;;;;;10443197;28;20057;-70
2022/04/18 11:53:43;;;;;;;3.17;2.45;;;;;;;;;;10443851;28;20041;-69
2022/04/18 11:58:46;;;;;;;9.65;3.00;;;;;;;;;;10443780;28;20064;-69
2022/04/18 12:09:13;;;;;;;7.75;3.72;;;;;;;;;;10455056;28;20045;-69
2022/04/18 12:14:16;;;;;;;4.18;2.30;;;;;;;;;;10454939;28;20041;-72
2022/04/18 12:19:21;;;;;;;3.08;2.40;;;;;;;;;;10440979;28;20355;-69
2022/04/18 12:24:23;;;;;;;;;;;;;;;;;;10442348;28;20248;-72
2022/04/18 12:29:26;;;;;;;3.00;2.40;;;;;;;;;;10442938;28;19917;-69
2022/04/18 12:34:30;;;;;;;3.22;2.88;;;;;;;;;;10438419;28;20033;-70
2022/04/18 12:39:32;;;;;;;2.67;2.45;;;;;;;;;;10442160;28;20337;-69
2022/04/18 12:44:35;;;;;;;4.82;2.40;;;;;;;;;;10439996;28;20068;-69
2022/04/18 12:49:39;;;;;;;6.55;2.65;;;;;;;;;;10436838;28;20264;-70
2022/04/18 12:54:46;;;;;;;4.32;2.38;;;;;;;;;;10442204;28;20348;-69
2022/04/18 12:59:48;;;;;;;3.13;2.33;;;;;;;;;;10455007;28;20052;-70
2022/04/18 13:05:01;;;;;;;3.53;2.60;;;;;;;;;;10439097;28;20282;-69
2022/04/18 13:10:04;;;;;;;6.55;2.40;;;;;;;;;;10441599;28;20258;-70
2022/04/18 13:15:08;;;;;;;3.38;2.50;;;;;;;;;;10440738;28;20059;-70
2022/04/18 13:20:14;;;;;;;2.55;2.35;;;;;;;;;;10439624;28;20332;-68
2022/04/18 13:25:16;;;;;;;4.10;2.60;;;;;;;;;;10440615;28;20041;-68
2022/04/18 13:30:19;;;;;;;13.15;2.97;;;;;;;;;;10440407;28;20387;-69
2022/04/18 13:35:23;;;;;;;4.00;2.17;;;;;;;;;;10437051;28;20048;-69
2022/04/18 13:40:26;;;;;;;4.05;2.55;;;;;;;;;;10439503;28;20167;-68
2022/04/18 13:45:28;;;;;;;3.25;2.38;;;;;;;;;;10426132;28;20067;-70
2022/04/18 13:50:32;;;;;;;2.72;2.10;;;;;;;;;;10413598;28;20049;-69
2022/04/18 13:55:34;;;;;;;10.45;2.78;;;;;;;;;;10433115;28;20060;-68
2022/04/18 14:00:37;;;;;;;8.38;2.20;;;;;;;;;;10430126;28;20111;-68
2022/04/18 14:05:41;;;;;;;4.07;2.47;;;;;;;;;;10427532;28;20115;-69
2022/04/18 14:10:43;;;;;;;4.68;2.10;;;;;;;;;;10418567;28;20045;-69
2022/04/18 14:21:07;;;;;;;4.15;2.08;;;;;;;;;;10447225;28;20041;-69
2022/04/18 14:26:09;;;;;;;4.55;2.00;;;;;;;;;;10431553;28;20049;-70
2022/04/18 14:31:12;;;;;;;4.97;2.28;;;;;;;;;;10432856;28;20065;-70
2022/04/18 14:36:19;;;;;;;3.40;2.38;;;;;;;;;;10432261;28;20213;-72
2022/04/18 14:41:21;;;;;;;6.13;2.65;;;;;;;;;;10439775;28;20041;-71
2022/04/18 14:46:24;;;;;;;3.92;2.10;;;;;;;;;;10446761;28;20041;-70
2022/04/18 14:51:27;;;;;;;6.60;3.95;;;;;;;;;;10430132;28;20171;-70
2022/04/18 14:56:30;;;;;;;6.97;2.80;;;;;;;;;;10432760;28;20137;-70
2022/04/18 15:01:32;;;;;;;3.53;2.35;;;;;;;;;;10429733;28;20045;-70
2022/04/18 15:06:39;;;;;;;4.07;2.25;;;;;;;;;;10430341;28;20049;-70
2022/04/18 15:11:45;;;;;;;3.40;2.30;;;;;;;;;;10441943;28;20057;-72
2022/04/18 15:16:47;;;;;;;2.97;2.67;;;;;;;;;;10445812;28;20072;-69
2022/04/18 15:21:51;;;;;;;7.18;2.70;;;;;;;;;;10431088;28;20297;-68
2022/04/18 15:26:54;;;;;;;3.50;2.22;;;;;;;;;;10432746;28;20049;-68
2022/04/18 15:32:09;;;;;;;4.47;2.30;;;;;;;;;;10432840;28;20049;-68
2022/04/18 15:37:14;;;;;;;3.10;1.85;;;;;;;;;;10431023;28;20088;-69
2022/04/18 15:42:16;;;;;;;3.22;2.10;;;;;;;;;;10431241;28;20107;-68
2022/04/18 15:47:19;;;;;;;6.10;2.20;;;;;;;;;;10425865;28;20049;-68
2022/04/18 15:52:23;;;;;;;3.67;2.00;;;;;;;;;;10421367;28;20069;-68
2022/04/18 15:57:25;;;;;;;4.03;1.90;;;;;;;;;;10429900;28;20084;-70
2022/04/18 16:02:28;;;;;;;5.07;2.72;;;;;;;;;;10430910;28;20100;-68
2022/04/18 16:07:31;;;;;;;4.53;1.90;;;;;;;;;;10429858;28;20112;-69
2022/04/18 16:12:34;;;;;;;3.35;1.98;;;;;;;;;;10429326;28;20289;-69
2022/04/18 16:17:36;;;;;;;3.25;1.85;;;;;;;;;;10431130;28;20355;-69
2022/04/18 16:22:40;;;;;;;2.03;1.50;;;;;;;;;;10437628;28;20057;-69
2022/04/18 16:27:42;;;;;;;4.80;2.03;;;;;;;;;;10432965;28;20065;-68
2022/04/18 16:32:45;;;;;;;6.95;2.22;;;;;;;;;;10438485;28;20042;-68
2022/04/18 16:37:48;;;;;;;4.07;1.92;;;;;;;;;;10437041;28;20049;-68
2022/04/18 16:48:12;;;;;;;2.78;2.30;;;;;;;;;;10438554;28;20321;-69
2022/04/18 16:53:15;;;;;;;3.50;2.35;;;;;;;;;;10434079;28;20079;-68
2022/04/18 16:58:18;;;;;;;15.00;3.85;;;;;;;;;;10436705;28;20045;-69
2022/04/18 17:03:20;;;;;;;3.45;2.97;;;;;;;;;;10433590;28;20111;-69
2022/04/18 17:08:24;;;;;;;3.00;2.63;;;;;;;;;;10434625;28;20336;-69
2022/04/18 17:13:27;;;;;;;9.02;3.38;;;;;;;;;;10430692;28;20029;-70
2022/04/18 17:18:30;;;;;;;3.15;2.40;;;;;;;;;;10431846;28;20107;-69
2022/04/18 17:23:33;;;;;;;9.00;4.70;;;;;;;;;;10435354;28;20052;-69
2022/04/18 17:28:36;;;;;;;3.90;2.97;;;;;;;;;;10399914;28;20111;-68
2022/04/18 17:33:39;;;;;;;5.68;3.00;;;;;;;;;;10436012;28;20309;-68
2022/04/18 17:38:43;;;;;;;6.95;3.00;;;;;;;;;;10435543;28;20099;-68
2022/04/18 17:43:45;;;;;;;3.08;2.35;;;;;;;;;;10433221;28;20061;-69
2022/04/18 17:48:48;;;;;;;2.75;2.55;;;;;;;;;;10436654;28;20049;-69
2022/04/18 17:59:12;;;;;;;4.57;3.58;;;;;;;;;;10441333;28;20098;-70
2022/04/18 18:04:15;;;;;;;4.78;3.67;;;;;;;;;;10435929;28;20049;-71
2022/04/18 18:09:19;;;;;;;8.98;3.92;;;;;;;;;;10435181;28;20287;-71
2022/04/18 18:14:21;;;;;;;6.03;3.88;;;;;;;;;;10412695;28;20048;-69
2022/04/18 18:19:23;;;;;;;6.95;3.92;;;;;;;;;;10411104;28;20049;-69
2022/04/18 18:24:30;;;;;;;9.97;5.00;;;;;;;;;;10434051;28;20057;-68
2022/04/18 18:29:32;;;;;;;8.55;4.47;;;;;;;;;;10431882;28;20316;-69
2022/04/18 18:34:35;;;;;;;6.97;5.00;;;;;;;;;;10435658;28;20356;-69
2022/04/18 18:39:39;;;;;;;9.98;5.00;;;;;;;;;;10432381;28;20079;-69
2022/04/18 18:44:42;;;;;;;9.85;5.10;;;;;;;;;;10396437;28;20105;-70
2022/04/18 18:49:45;;;;;;;10.07;5.00;;;;;;;;;;10400853;28;20076;-69
2022/04/18 18:54:48;;;;;;;7.97;4.43;;;;;;;;;;10432774;28;20049;-71
2022/04/18 18:59:51;;;;;;;7.78;4.80;;;;;;;;;;10427643;28;20056;-70
2022/04/18 19:04:53;;;;;;;9.32;5.28;;;;;;;;;;10408159;28;20053;-69
2022/04/18 19:09:57;;;;;;;8.30;4.97;;;;;;;;;;10409558;28;20068;-70
2022/04/18 19:14:59;;;;;;;9.07;4.93;;;;;;;;;;10426721;28;20049;-70
2022/04/18 19:30:43;;;;;;;11.50;5.75;;;;;;;;;;10444149;28;20052;-70
2022/04/18 19:35:45;;;;;;;14.13;6.70;;;;;;;;;;10432645;28;20050;-69
2022/04/18 19:40:49;;;;;;;11.55;6.25;;;;;;;;;;10431840;28;20108;-69
2022/04/18 19:45:52;;;;;;;12.77;5.72;;;;;;;;;;10432306;28;20103;-70
2022/04/18 19:50:55;;;;;;;9.60;5.53;;;;;;;;;;10432288;28;20049;-71
2022/04/18 19:55:58;;;;;;;9.23;5.00;;;;;;;;;;10431313;28;20264;-70
2022/04/18 20:01:01;;;;;;;8.45;5.18;;;;;;;;;;10439019;28;20327;-71
2022/04/18 20:06:03;;;;;;;9.90;4.85;;;;;;;;;;10439167;28;20049;-70
2022/04/18 20:11:07;;;;;;;8.20;4.70;;;;;;;;;;10438337;28;20284;-70
2022/04/18 20:16:10;;;;;;;8.35;4.60;;;;;;;;;;10438435;28;20221;-70
2022/04/18 20:21:14;;;;;;;10.65;4.78;;;;;;;;;;10438723;28;20037;-70
2022/04/18 20:26:18;;;;;;;8.68;4.38;;;;;;;;;;10436414;28;20049;-69
2022/04/18 20:31:21;;;;;;;8.27;4.88;;;;;;;;;;10438754;28;20045;-69
2022/04/18 20:36:23;;;;;;;9.13;5.10;;;;;;;;;;10438740;28;20422;-70
2022/04/18 20:41:30;;;;;;;10.05;4.88;;;;;;;;;;10436653;28;20053;-69
2022/04/18 20:46:32;;;;;;;8.07;4.85;;;;;;;;;;10438374;28;20316;-69
2022/04/18 20:51:34;;;;;;;8.25;5.30;;;;;;;;;;10437616;28;20091;-69
2022/04/18 21:01:58;;;;;;;11.90;4.72;;;;;;;;;;10451432;28;20041;-71
2022/04/18 21:07:01;;;;;;;10.43;5.07;;;;;;;;;;10439095;28;20156;-71
2022/04/18 21:12:06;;;;;;;8.20;5.03;;;;;;;;;;10438205;28;20037;-71
2022/04/18 21:17:08;;;;;;;7.95;4.13;;;;;;;;;;10451050;28;20053;-70
2022/04/18 21:22:11;;;;;;;5.40;3.58;;;;;;;;;;10438228;28;20049;-69
2022/04/18 21:27:15;;;;;;;7.25;3.92;;;;;;;;;;10436024;28;20054;-70
2022/04/18 21:32:17;;;;;;;5.00;3.58;;;;;;;;;;10435117;28;20069;-71
2022/04/18 21:37:20;;;;;;;4.30;3.40;;;;;;;;;;10437558;28;20042;-69
2022/04/18 21:42:24;;;;;;;5.95;3.55;;;;;;;;;;10436861;28;20057;-69
2022/04/18 21:47:27;;;;;;;8.23;4.47;;;;;;;;;;10435444;28;20040;-71
2022/04/18 21:52:30;;;;;;;7.15;3.83;;;;;;;;;;10434403;28;20045;-70
2022/04/18 21:57:35;;;;;;;6.15;3.95;;;;;;;;;;10435007;28;20100;-69
2022/04/18 22:02:37;;;;;;;7.28;5.05;;;;;;;;;;10434306;28;20272;-70
2022/04/18 22:07:39;;;;;;;6.07;4.10;;;;;;;;;;10435991;28;20049;-71
2022/04/18 22:12:44;;;;;;;9.02;4.32;;;;;;;;;;10435491;28;20057;-70
2022/04/18 22:17:46;;;;;;;6.30;4.30;;;;;;;;;;10432398;28;20218;-70
2022/04/18 22:28:10;;;;;;;7.25;3.80;;;;;;;;;;10447345;28;20049;-68
2022/04/18 22:33:15;;;;;;;8.00;4.85;;;;;;;;;;10434615;28;20053;-69
2022/04/18 22:38:17;;;;;;;;;;;;;;;;;;10434316;28;20049;-68
2022/04/18 22:43:23;;;;;;;10.25;6.30;;;;;;;;;;10433656;28;19939;-69
2022/04/18 22:48:26;;;;;;;11.93;6.55;;;;;;;;;;10447029;28;20045;-69
2022/04/18 22:53:28;;;;;;;12.30;6.60;;;;;;;;;;10433070;28;20283;-71
2022/04/18 22:58:32;;;;;;;11.40;5.82;;;;;;;;;;10434047;28;20053;-68
2022/04/18 23:03:34;;;;;;;10.13;5.93;;;;;;;;;;10432084;28;20069;-69
2022/04/18 23:08:38;;;;;;;9.77;6.00;;;;;;;;;;10433230;28;20045;-69
2022/04/18 23:13:42;;;;;;;8.48;5.53;;;;;;;;;;10432294;28;20073;-68
2022/04/18 23:18:44;;;;;;;10.07;5.63;;;;;;;;;;10430247;28;20045;-69
2022/04/18 23:23:46;;;;;;;8.75;5.70;;;;;;;;;;10431865;28;20041;-69
2022/04/18 23:28:50;;;;;;;9.50;5.78;;;;;;;;;;10434768;28;20033;-69
2022/04/18 23:33:53;;;;;;;9.23;5.18;;;;;;;;;;10437617;28;20321;-70
2022/04/18 23:38:55;;;;;;;10.05;5.38;;;;;;;;;;10401321;28;20041;-69
2022/04/18 23:44:05;;;;;;;7.40;5.75;;;;;;;;;;10439868;28;20053;-70
2022/04/18 23:49:07;;;;;;;8.23;5.28;;;;;;;;;;10452803;28;20095;-69
2022/04/18 23:54:10;;;;;;;7.47;5.45;;;;;;;;;;10439030;28;20053;-68
2022/04/18 23:59:13;;;;;;;7.25;5.60;;;;;;;;;;10439117;28;20053;-68
